Terminal Aerodrome Forecast
Issued by NWS

Home | Current Version | Previous Version | Text Only | Print | Product List | Glossary On
Versions: 1 2 3 4 5 6 7 8 9 10 11 12 13 14 15 16 17
331
FTUS43 KGRB 301131
TAFATW
TAF
KATW 301131Z 3012/0112 04011KT P6SM SCT008 OVC011
      TEMPO 3012/3014 6SM -DZ BKN008
     FM301600 05012G18KT P6SM OVC020
     FM301800 05012G18KT P6SM OVC016
     FM302000 05010G16KT P6SM -SHRA OVC015
     FM010000 04009KT P6SM -SHRA OVC011
     FM010300 05008KT P6SM -SHRA OVC007=

USA.gov is the U.S. government's official web portal to all federal, state and local government web resources and services.